Time;durP1;ratioP1;P1;durP2;ratioP2;P2;SDS_P1;SDS_P2;PMS_P1;PMS_P2;Temp;Humidity;BMP_temperature;BMP_pressure;BME280_temperature;BME280_humidity;BME280_pressure;Samples;Min_cycle;Max_cycle;Signal;HPM_P1;HPM_P2
2022/03/25 00:01:57;;;;;;;41.03;17.27;;;9.50;57.30;;;;;;5062839;28;20044;-82
2022/03/25 00:04:23;;;;;;;35.70;17.58;;;9.40;57.40;;;;;;5060706;28;20040;-83
2022/03/25 00:06:49;;;;;;;46.78;17.85;;;9.40;57.50;;;;;;5058744;28;20068;-83
2022/03/25 00:09:14;;;;;;;42.95;17.85;;;9.40;57.70;;;;;;5058299;28;20128;-82
2022/03/25 00:11:40;;;;;;;43.40;17.48;;;9.40;57.90;;;;;;5060127;28;20135;-83
2022/03/25 00:14:06;;;;;;;39.95;17.30;;;9.30;57.80;;;;;;5069081;28;20051;-81
2022/03/25 00:16:32;;;;;;;45.90;17.10;;;9.20;58.00;;;;;;5064054;28;20033;-85
2022/03/25 00:18:58;;;;;;;37.85;17.48;;;9.20;58.20;;;;;;5054690;28;20640;-85
2022/03/25 00:21:24;;;;;;;49.38;18.08;;;9.20;58.40;;;;;;5037861;28;20060;-85
2022/03/25 00:23:50;;;;;;;37.13;17.48;;;9.10;58.50;;;;;;5062670;28;20017;-84
2022/03/25 00:26:16;;;;;;;42.97;17.50;;;9.10;58.80;;;;;;5048019;28;20033;-82
2022/03/25 00:28:42;;;;;;;38.75;17.23;;;9.10;59.20;;;;;;5055295;23;20044;-87
2022/03/25 00:31:08;;;;;;;33.90;15.55;;;9.00;59.50;;;;;;5059784;28;20091;-88
2022/03/25 00:33:36;;;;;;;38.15;16.85;;;9.00;59.70;;;;;;5066872;28;20029;-88
2022/03/25 00:36:03;;;;;;;34.75;15.68;;;8.90;60.00;;;;;;5066578;28;20032;-88
2022/03/25 00:38:30;;;;;;;35.60;16.60;;;8.90;60.20;;;;;;5065602;28;20032;-88
2022/03/25 00:40:57;;;;;;;39.72;17.30;;;8.80;60.50;;;;;;5062178;28;20125;-87
2022/03/25 00:43:24;;;;;;;44.28;16.23;;;8.80;60.80;;;;;;5067455;28;20021;-87
2022/03/25 00:45:51;;;;;;;37.00;16.70;;;8.70;61.30;;;;;;5068417;28;20045;-87
2022/03/25 00:48:17;;;;;;;44.17;16.98;;;8.60;61.60;;;;;;5047852;28;20097;-88
2022/03/25 00:50:43;;;;;;;40.20;15.98;;;8.60;62.10;;;;;;5048421;28;20033;-89
2022/03/25 00:53:11;;;;;;;33.33;15.80;;;8.50;62.50;;;;;;5070268;28;20033;-88
2022/03/25 00:55:38;;;;;;;46.53;16.02;;;8.40;63.00;;;;;;5071226;28;20130;-88
2022/03/25 00:58:04;;;;;;;39.00;16.35;;;8.30;63.30;;;;;;5070878;28;20033;-88
2022/03/25 01:00:30;;;;;;;34.05;16.63;;;8.30;63.60;;;;;;5070774;28;20013;-87
2022/03/25 01:02:56;;;;;;;40.58;16.17;;;8.20;63.90;;;;;;5051594;28;20557;-87
2022/03/25 01:05:22;;;;;;;45.47;16.80;;;8.10;64.00;;;;;;5066223;28;20021;-87
2022/03/25 01:07:48;;;;;;;43.88;16.90;;;8.10;64.30;;;;;;5047220;28;20059;-85
2022/03/25 01:10:14;;;;;;;39.75;16.80;;;8.10;64.60;;;;;;5064225;28;20013;-88
2022/03/25 01:12:40;;;;;;;42.53;17.20;;;8.00;64.90;;;;;;5065397;28;20021;-88
2022/03/25 01:15:07;;;;;;;40.13;18.08;;;8.00;65.00;;;;;;5047746;28;20024;-88
2022/03/25 01:17:33;;;;;;;43.42;16.25;;;7.90;65.20;;;;;;5047556;28;20059;-87
2022/03/25 01:19:59;;;;;;;39.17;16.10;;;7.90;65.40;;;;;;5063910;28;20104;-88
2022/03/25 01:22:25;;;;;;;40.83;17.65;;;7.80;65.30;;;;;;5036901;28;20117;-88
2022/03/25 01:24:50;;;;;;;50.85;17.48;;;7.80;65.40;;;;;;5059245;28;20499;-87
2022/03/25 01:27:17;;;;;;;37.78;16.58;;;7.70;65.60;;;;;;5047802;28;20135;-87
2022/03/25 01:29:43;;;;;;;41.25;17.23;;;7.70;66.10;;;;;;5049299;28;20037;-88
2022/03/25 01:32:10;;;;;;;35.65;17.23;;;7.60;66.00;;;;;;5069478;28;20036;-87
2022/03/25 01:34:37;;;;;;;36.80;16.42;;;7.60;66.60;;;;;;5056918;28;20029;-87
2022/03/25 01:37:03;;;;;;;40.38;16.00;;;7.50;67.10;;;;;;5057133;28;20025;-87
2022/03/25 01:39:29;;;;;;;37.42;17.83;;;7.40;67.60;;;;;;5073800;28;20017;-88
2022/03/25 01:41:55;;;;;;;44.20;17.85;;;7.40;67.80;;;;;;5049044;28;20468;-88
2022/03/25 01:44:30;;;;;;;39.38;16.85;;;7.30;68.30;;;;;;5076515;28;20035;-87
2022/03/25 01:46:57;;;;;;;;;;;7.30;68.30;;;;;;5060247;28;20131;-88
2022/03/25 01:49:23;;;;;;;39.10;15.20;;;7.20;68.40;;;;;;5076024;28;19992;-87
2022/03/25 01:51:51;;;;;;;33.90;15.82;;;7.20;68.30;;;;;;5078501;28;20093;-87
2022/03/25 01:54:28;;;;;;;37.47;15.80;;;7.20;68.40;;;;;;5072091;28;20025;-87
2022/03/25 01:56:56;;;;;;;39.40;16.35;;;7.20;68.40;;;;;;5078712;28;20071;-85
2022/03/25 01:59:23;;;;;;;36.97;15.63;;;7.20;68.40;;;;;;5062457;28;20047;-88
2022/03/25 02:01:51;;;;;;;40.40;15.98;;;7.20;68.30;;;;;;5077841;28;20025;-86
2022/03/25 02:04:17;;;;;;;48.30;17.15;;;7.10;68.40;;;;;;5078908;28;20017;-87
2022/03/25 02:06:44;;;;;;;46.78;16.73;;;7.10;68.60;;;;;;5079429;28;20037;-86
2022/03/25 02:09:10;;;;;;;43.28;16.67;;;7.00;68.90;;;;;;5077639;28;20029;-87
2022/03/25 02:11:38;;;;;;;37.47;15.32;;;7.00;69.10;;;;;;5054239;28;20104;-87
2022/03/25 02:14:05;;;;;;;38.35;15.50;;;7.00;69.40;;;;;;5052739;28;20131;-88
2022/03/25 02:16:46;;;;;;;37.22;16.23;;;7.00;69.70;;;;;;5053577;28;20081;-88
2022/03/25 02:19:18;;;;;;;37.63;16.13;;;7.00;69.80;;;;;;5056851;28;20021;-87
2022/03/25 02:21:47;;;;;;;44.08;17.20;;;6.90;70.10;;;;;;5058705;28;20054;-87
2022/03/25 02:24:16;;;;;;;39.35;15.93;;;6.90;70.40;;;;;;5057234;28;20036;-88
2022/03/25 02:26:46;;;;;;;39.88;17.05;;;6.90;70.70;;;;;;5055076;28;20035;-88
2022/03/25 02:29:16;;;;;;;38.63;16.10;;;6.80;71.00;;;;;;5052664;28;20025;-88
2022/03/25 02:31:42;;;;;;;41.45;17.20;;;6.80;71.20;;;;;;5062667;28;20057;-88
2022/03/25 02:34:10;;;;;;;40.28;16.75;;;6.70;70.70;;;;;;5057252;28;20037;-87
2022/03/25 02:36:44;;;;;;;42.00;17.23;;;6.70;70.50;;;;;;5067885;28;20029;-88
2022/03/25 02:39:12;;;;;;;38.67;16.98;;;6.70;70.80;;;;;;5049280;28;20521;-89
2022/03/25 02:41:38;;;;;;;40.50;16.08;;;6.60;71.10;;;;;;5045076;28;20114;-89
2022/03/25 02:44:06;;;;;;;39.95;16.77;;;6.60;71.50;;;;;;5047321;28;20025;-88
2022/03/25 02:46:32;;;;;;;36.45;17.45;;;6.60;71.90;;;;;;5045219;28;20092;-88
2022/03/25 02:48:58;;;;;;;38.92;16.77;;;6.60;72.20;;;;;;5047335;28;20036;-86
2022/03/25 02:51:25;;;;;;;51.22;18.00;;;6.60;72.50;;;;;;5047472;28;20032;-88
2022/03/25 02:53:51;;;;;;;41.60;16.65;;;6.60;72.80;;;;;;5066315;28;20024;-87
2022/03/25 02:56:18;;;;;;;40.08;16.77;;;6.60;73.20;;;;;;5052707;28;20025;-87
2022/03/25 02:58:44;;;;;;;47.55;17.45;;;6.60;73.40;;;;;;5068718;28;20040;-88
2022/03/25 03:01:10;;;;;;;36.80;16.17;;;6.50;73.70;;;;;;5050704;28;20025;-85
2022/03/25 03:03:36;;;;;;;41.20;16.58;;;6.50;74.10;;;;;;5055025;28;20085;-87
2022/03/25 03:06:02;;;;;;;39.78;15.93;;;6.40;74.60;;;;;;5077223;28;20048;-86
2022/03/25 03:08:29;;;;;;;48.70;17.55;;;6.40;75.00;;;;;;5076296;28;20029;-87
2022/03/25 03:10:55;;;;;;;37.58;15.93;;;6.40;75.50;;;;;;5049155;28;20112;-88
2022/03/25 03:13:21;;;;;;;42.67;16.60;;;6.30;76.10;;;;;;5071375;28;20013;-88
2022/03/25 03:15:49;;;;;;;39.70;17.40;;;6.30;76.80;;;;;;5075954;28;20025;-86
2022/03/25 03:18:15;;;;;;;37.17;17.00;;;6.20;77.60;;;;;;5053424;28;20037;-87
2022/03/25 03:20:41;;;;;;;43.58;17.55;;;6.20;78.40;;;;;;5052921;28;20021;-86
2022/03/25 03:23:07;;;;;;;39.92;16.63;;;6.10;79.30;;;;;;5074550;28;20048;-89
2022/03/25 03:25:34;;;;;;;39.83;16.60;;;6.10;79.90;;;;;;5048597;28;20052;-89
2022/03/25 03:28:01;;;;;;;42.25;17.70;;;6.00;80.80;;;;;;5067462;28;20033;-87
2022/03/25 03:30:27;;;;;;;39.38;16.90;;;6.00;81.80;;;;;;5064475;28;20029;-88
2022/03/25 03:32:57;;;;;;;43.05;17.10;;;5.90;82.80;;;;;;5051797;28;20083;-86
2022/03/25 03:35:25;;;;;;;38.63;16.65;;;5.90;83.70;;;;;;5067666;28;20021;-87
2022/03/25 03:37:52;;;;;;;48.90;17.45;;;5.80;84.50;;;;;;5072671;28;20060;-87
2022/03/25 03:40:18;;;;;;;38.35;17.13;;;5.80;85.50;;;;;;5054402;28;20052;-87
2022/03/25 03:42:45;;;;;;;36.97;16.77;;;5.80;86.30;;;;;;5051201;28;20119;-88
2022/03/25 03:45:11;;;;;;;44.33;16.95;;;5.70;87.10;;;;;;5068811;28;20028;-87
2022/03/25 03:47:39;;;;;;;41.55;17.17;;;5.70;87.80;;;;;;5071983;28;20407;-87
2022/03/25 03:50:08;;;;;;;40.17;17.48;;;5.70;88.50;;;;;;5068213;28;20025;-87
2022/03/25 03:52:35;;;;;;;41.45;16.58;;;5.70;89.20;;;;;;5068616;28;20103;-88
2022/03/25 03:55:03;;;;;;;42.67;17.42;;;5.60;89.80;;;;;;5049056;28;20120;-87
2022/03/25 03:57:47;;;;;;;41.45;16.77;;;5.60;90.20;;;;;;5043360;28;20036;-87
2022/03/25 04:00:13;;;;;;;47.42;17.40;;;5.60;90.50;;;;;;5049078;28;20029;-88
2022/03/25 04:02:46;;;;;;;46.40;17.98;;;5.50;91.00;;;;;;5067485;28;20032;-86
2022/03/25 04:05:13;;;;;;;36.45;17.85;;;5.50;91.20;;;;;;5046406;28;20063;-87
2022/03/25 04:07:46;;;;;;;46.33;17.77;;;5.50;92.00;;;;;;5064920;28;20021;-87
2022/03/25 04:10:14;;;;;;;40.53;18.50;;;5.50;92.50;;;;;;5046181;28;20112;-87
2022/03/25 04:12:39;;;;;;;48.75;18.15;;;5.40;93.20;;;;;;5036575;28;20025;-88
2022/03/25 04:15:10;;;;;;;40.50;18.40;;;5.40;93.90;;;;;;5045515;28;20110;-88
2022/03/25 04:17:40;;;;;;;39.58;18.00;;;5.30;94.50;;;;;;5064074;28;20513;-87
2022/03/25 04:20:09;;;;;;;45.00;20.40;;;5.30;95.10;;;;;;5068272;28;20029;-87
2022/03/25 04:22:34;;;;;;;49.65;20.63;;;5.30;95.70;;;;;;5055564;28;20097;-88
2022/03/25 04:25:00;;;;;;;46.42;20.02;;;5.30;96.10;;;;;;5068753;28;20017;-86
2022/03/25 04:27:26;;;;;;;43.67;19.50;;;5.20;96.80;;;;;;5066400;28;20102;-86
2022/03/25 04:29:52;;;;;;;42.38;18.58;;;5.10;96.80;;;;;;5067821;28;20025;-87
2022/03/25 04:32:18;;;;;;;47.05;18.98;;;5.20;95.90;;;;;;5048630;28;20088;-86
2022/03/25 04:34:44;;;;;;;51.97;18.98;;;5.10;96.10;;;;;;5062433;28;20029;-86
2022/03/25 04:37:10;;;;;;;49.22;18.30;;;5.10;95.80;;;;;;5057776;28;20025;-86
2022/03/25 04:39:37;;;;;;;48.17;19.00;;;5.10;95.50;;;;;;5067364;28;20088;-87
2022/03/25 04:42:03;;;;;;;41.83;18.25;;;5.10;95.80;;;;;;5046304;28;20032;-86
2022/03/25 04:44:29;;;;;;;41.13;17.45;;;5.00;95.80;;;;;;5064514;28;20538;-86
2022/03/25 04:46:56;;;;;;;51.22;19.17;;;5.00;96.20;;;;;;5063455;28;20044;-85
2022/03/25 04:49:22;;;;;;;47.80;18.52;;;5.00;96.20;;;;;;5065970;28;20040;-86
2022/03/25 04:51:48;;;;;;;48.78;19.05;;;4.90;96.50;;;;;;5063610;28;20039;-86
2022/03/25 04:54:14;;;;;;;49.70;18.98;;;4.90;96.70;;;;;;5051770;28;20027;-84
2022/03/25 04:56:41;;;;;;;49.20;18.58;;;4.90;97.10;;;;;;5066413;28;20033;-86
2022/03/25 04:59:07;;;;;;;45.78;18.38;;;4.90;97.40;;;;;;5066317;28;20021;-86
2022/03/25 05:01:33;;;;;;;46.65;19.30;;;4.80;97.70;;;;;;5076157;28;20037;-84
2022/03/25 05:03:58;;;;;;;52.03;17.52;;;4.90;97.60;;;;;;5062960;28;20017;-86
2022/03/25 05:06:24;;;;;;;45.20;19.60;;;4.80;97.50;;;;;;5074801;28;20013;-87
2022/03/25 05:08:50;;;;;;;45.25;18.70;;;4.80;97.50;;;;;;5074169;28;20036;-87
2022/03/25 05:11:16;;;;;;;50.20;18.75;;;4.80;97.70;;;;;;5054039;28;20104;-86
2022/03/25 05:13:41;;;;;;;36.97;17.30;;;4.80;97.90;;;;;;5069125;28;20116;-85
2022/03/25 05:16:07;;;;;;;43.17;18.75;;;4.90;98.10;;;;;;5048111;28;20025;-87
2022/03/25 05:18:33;;;;;;;47.92;19.30;;;4.90;98.10;;;;;;5052005;28;20025;-87
2022/03/25 05:21:01;;;;;;;46.92;18.30;;;4.90;97.80;;;;;;5070706;28;20017;-86
2022/03/25 05:23:27;;;;;;;50.30;19.27;;;4.90;97.80;;;;;;5039447;28;20036;-87
2022/03/25 05:25:54;;;;;;;53.78;18.83;;;5.00;97.70;;;;;;5068774;28;20065;-86
2022/03/25 05:28:20;;;;;;;46.50;19.02;;;5.00;97.80;;;;;;5073066;28;20028;-86
2022/03/25 05:30:46;;;;;;;50.28;18.67;;;5.00;97.90;;;;;;5051395;28;20040;-87
2022/03/25 05:33:11;;;;;;;48.65;18.88;;;5.10;98.00;;;;;;5050506;28;20029;-87
2022/03/25 05:35:37;;;;;;;44.95;19.13;;;5.10;97.80;;;;;;5051658;28;20026;-85
2022/03/25 05:38:03;;;;;;;41.50;18.27;;;5.10;97.90;;;;;;5062552;28;20041;-87
2022/03/25 05:40:30;;;;;;;47.20;18.63;;;5.20;97.90;;;;;;5044071;28;20017;-84
2022/03/25 05:42:56;;;;;;;43.20;19.25;;;5.20;97.90;;;;;;5066585;28;20060;-84
2022/03/25 05:45:23;;;;;;;45.42;19.70;;;5.20;97.90;;;;;;5052087;28;20473;-84
2022/03/25 05:47:49;;;;;;;47.60;19.40;;;5.30;98.00;;;;;;5068847;28;20080;-85
2022/03/25 05:50:16;;;;;;;47.50;18.90;;;5.30;98.00;;;;;;5049138;28;20024;-87
2022/03/25 05:52:42;;;;;;;47.42;19.20;;;5.40;98.00;;;;;;5043900;28;20041;-87
2022/03/25 05:55:09;;;;;;;53.60;20.15;;;5.50;98.00;;;;;;5066065;28;20092;-87
2022/03/25 05:57:35;;;;;;;42.00;18.85;;;5.50;98.10;;;;;;5065224;28;20124;-86
2022/03/25 06:00:04;;;;;;;38.90;17.38;;;5.60;98.10;;;;;;5046000;28;20022;-84
2022/03/25 06:02:39;;;;;;;47.38;19.27;;;5.60;98.00;;;;;;5077771;28;20053;-82
2022/03/25 06:05:06;;;;;;;42.10;18.42;;;5.70;98.20;;;;;;5074330;28;20041;-86
2022/03/25 06:07:39;;;;;;;43.05;18.08;;;5.80;97.70;;;;;;5068266;28;20071;-87
2022/03/25 06:10:07;;;;;;;39.70;18.40;;;5.90;96.80;;;;;;5052686;28;20032;-82
2022/03/25 06:12:34;;;;;;;48.60;19.65;;;6.00;95.70;;;;;;5058855;28;20053;-84
2022/03/25 06:15:00;;;;;;;47.45;18.08;;;6.10;95.00;;;;;;5071556;28;20059;-84
2022/03/25 06:17:26;;;;;;;45.45;19.05;;;6.20;94.60;;;;;;5065399;28;20102;-86
2022/03/25 06:19:53;;;;;;;52.30;18.90;;;6.30;94.20;;;;;;5064043;28;20036;-87
2022/03/25 06:22:19;;;;;;;50.92;18.77;;;6.50;93.50;;;;;;5056875;28;20025;-86
2022/03/25 06:24:45;;;;;;;43.83;19.20;;;6.50;92.80;;;;;;5058175;28;20124;-85
2022/03/25 06:27:11;;;;;;;45.15;19.77;;;6.60;92.20;;;;;;5047978;28;20025;-86
2022/03/25 06:29:38;;;;;;;49.70;20.35;;;6.80;92.30;;;;;;5116990;22;20036;-90
2022/03/25 06:32:07;;;;;;;47.70;19.45;;;6.90;91.90;;;;;;5075535;28;20049;-90
2022/03/25 06:34:34;;;;;;;56.20;20.15;;;7.00;92.10;;;;;;5077018;28;20019;-89
2022/03/25 06:37:04;;;;;;;41.08;19.70;;;7.10;92.00;;;;;;5190403;22;20049;-89
2022/03/25 06:39:31;;;;;;;49.58;19.67;;;7.10;92.00;;;;;;5080682;28;20017;-89
2022/03/25 06:41:57;;;;;;;53.63;21.30;;;7.20;92.10;;;;;;5080503;28;20043;-89
2022/03/25 06:44:24;;;;;;;55.65;20.33;;;7.30;91.50;;;;;;5077134;28;20031;-89
2022/03/25 06:46:50;;;;;;;44.28;20.98;;;7.50;91.40;;;;;;5083302;28;20044;-88
2022/03/25 06:49:17;;;;;;;41.05;19.95;;;7.60;91.20;;;;;;5098106;28;20132;-89
2022/03/25 06:51:43;;;;;;;55.42;22.83;;;7.70;90.60;;;;;;5109891;22;20046;-87
2022/03/25 06:54:09;;;;;;;53.03;21.33;;;7.90;90.00;;;;;;5105951;28;20068;-87
2022/03/25 06:56:35;;;;;;;49.85;19.38;;;8.00;89.40;;;;;;5070141;28;20047;-88
2022/03/25 06:59:05;;;;;;;58.42;22.67;;;8.20;88.20;;;;;;5071739;28;20017;-90
2022/03/25 07:01:34;;;;;;;46.95;21.05;;;8.30;87.30;;;;;;5060197;28;20017;-90
2022/03/25 07:04:03;;;;;;;49.78;20.95;;;8.40;86.20;;;;;;5061111;28;20036;-91
2022/03/25 07:06:31;;;;;;;48.13;21.70;;;8.60;85.70;;;;;;5083958;22;20037;-90
2022/03/25 07:09:00;;;;;;;52.67;22.60;;;8.70;84.80;;;;;;5050700;28;20021;-90
2022/03/25 07:14:29;;;;;;;48.70;21.48;;;8.90;83.50;;;;;;5068036;23;20068;-91
2022/03/25 07:19:33;;;;;;;57.28;21.67;;;9.30;81.00;;;;;;5086826;23;20064;-90
2022/03/25 07:22:20;;;;;;;53.83;21.95;;;9.50;80.20;;;;;;4905035;29;20021;-90
2022/03/25 07:27:22;;;;;;;53.70;21.27;;;9.80;78.30;;;;;;5054862;24;20046;-90
2022/03/25 07:29:59;;;;;;;53.50;22.00;;;9.90;76.90;;;;;;4996643;24;20029;-91
2022/03/25 07:32:31;;;;;;;56.72;22.27;;;10.10;76.60;;;;;;4911903;29;20068;-91
2022/03/25 07:34:59;;;;;;;48.60;22.30;;;10.20;75.70;;;;;;4895297;29;20127;-91
2022/03/25 07:37:36;;;;;;;51.28;21.27;;;10.30;74.80;;;;;;4913280;29;20055;-90
2022/03/25 07:40:24;;;;;;;50.33;21.60;;;10.30;74.10;;;;;;4912142;29;20057;-92
2022/03/25 07:46:14;;;;;;;44.60;20.58;;;10.70;72.70;;;;;;5244626;23;20045;-93
2022/03/25 07:48:41;;;;;;;52.30;21.80;;;10.80;71.80;;;;;;4877161;29;20029;-92
2022/03/25 07:51:14;;;;;;;47.22;22.23;;;10.80;71.30;;;;;;4864888;29;20064;-91
2022/03/25 07:53:43;;;;;;;48.10;20.98;;;10.90;70.80;;;;;;4863060;29;20033;-92
2022/03/25 07:56:11;;;;;;;51.40;22.02;;;11.10;70.60;;;;;;5036156;24;20037;-90
2022/03/25 07:58:37;;;;;;;53.05;21.98;;;11.30;69.70;;;;;;4879863;29;20025;-89
2022/03/25 08:01:04;;;;;;;45.67;21.10;;;11.50;69.10;;;;;;4851617;29;20014;-91
2022/03/25 08:03:33;;;;;;;47.33;20.65;;;11.60;68.90;;;;;;4865142;29;20022;-91
2022/03/25 08:08:42;;;;;;;47.22;21.48;;;11.80;68.60;;;;;;4670434;27;20110;-90
2022/03/25 08:11:24;;;;;;;45.58;20.73;;;11.90;67.90;;;;;;4940912;29;20074;-90
2022/03/25 08:13:51;;;;;;;46.53;21.63;;;12.00;67.20;;;;;;4925646;29;20028;-90
2022/03/25 08:16:42;;;;;;;52.33;22.05;;;12.00;67.10;;;;;;4945471;29;20034;-90
2022/03/25 08:19:10;;;;;;;55.72;22.70;;;12.10;66.90;;;;;;5044568;23;20045;-90
2022/03/25 08:21:37;;;;;;;52.60;21.77;;;12.30;66.30;;;;;;4904972;29;20088;-88
2022/03/25 08:29:40;;;;;;;47.47;22.13;;;12.60;65.30;;;;;;4921287;29;20131;-88
2022/03/25 08:48:03;;;;;;;;;;;;;;;;;;;;;
2022/03/25 08:51:46;;;;;;;45.08;20.33;;;13.40;62.50;;;;;;4920825;29;20036;-89
2022/03/25 08:54:15;;;;;;;49.85;20.25;;;13.60;62.10;;;;;;4911453;29;20033;-89
2022/03/25 08:57:12;;;;;;;43.17;20.23;;;13.70;62.20;;;;;;4935089;29;20032;-88
2022/03/25 09:00:13;;;;;;;47.28;19.95;;;13.80;61.30;;;;;;4919632;29;20107;-88
2022/03/25 09:05:37;;;;;;;40.95;20.17;;;14.10;60.60;;;;;;4915256;29;20052;-88
2022/03/25 09:08:09;;;;;;;45.25;19.58;;;14.30;60.10;;;;;;4923323;29;20024;-90
2022/03/25 09:10:38;;;;;;;43.28;20.27;;;14.60;59.60;;;;;;4908274;29;20047;-91
2022/03/25 09:13:13;;;;;;;49.65;20.30;;;15.00;59.30;;;;;;4893754;29;20024;-90
2022/03/25 09:15:59;;;;;;;41.55;19.60;;;15.80;58.70;;;;;;4921799;29;20105;-87
2022/03/25 09:18:27;;;;;;;37.88;19.80;;;16.60;57.20;;;;;;4910650;29;20024;-88
2022/03/25 09:20:53;;;;;;;40.65;20.38;;;17.40;55.80;;;;;;4941421;29;20032;-89
2022/03/25 09:23:19;;;;;;;39.88;20.23;;;18.50;54.30;;;;;;4932767;29;20031;-88
2022/03/25 09:25:46;;;;;;;46.67;19.73;;;19.40;52.30;;;;;;4924917;29;20051;-89
2022/03/25 09:28:15;;;;;;;40.65;19.42;;;20.60;50.60;;;;;;4939789;29;20023;-89
2022/03/25 09:30:43;;;;;;;36.05;19.77;;;21.90;48.70;;;;;;4922288;29;20050;-88
2022/03/25 09:33:09;;;;;;;37.30;20.17;;;23.00;47.30;;;;;;4906994;29;20028;-90
2022/03/25 09:35:40;;;;;;;34.15;18.75;;;24.30;45.10;;;;;;4912514;29;20399;-90
2022/03/25 09:38:12;;;;;;;37.00;18.65;;;25.10;43.70;;;;;;4909834;29;20021;-90
2022/03/25 09:40:41;;;;;;;40.95;19.95;;;25.40;42.60;;;;;;4942070;29;20027;-90
2022/03/25 09:43:07;;;;;;;35.10;19.77;;;25.90;42.10;;;;;;4930581;29;20285;-90
2022/03/25 09:45:36;;;;;;;33.30;20.33;;;27.30;41.00;;;;;;4915143;29;20547;-88
2022/03/25 09:48:04;;;;;;;36.92;20.00;;;27.10;40.40;;;;;;4920210;29;20016;-89
2022/03/25 09:50:33;;;;;;;38.60;20.05;;;27.20;40.40;;;;;;4918715;29;20060;-89
2022/03/25 09:52:59;;;;;;;37.85;20.42;;;28.20;39.70;;;;;;4893044;29;20076;-90
2022/03/25 09:55:28;;;;;;;29.75;18.42;;;28.70;38.80;;;;;;4919096;29;20045;-90
2022/03/25 09:58:04;;;;;;;29.40;17.05;;;28.80;38.80;;;;;;4907022;29;20051;-90
2022/03/25 10:01:02;;;;;;;31.50;17.98;;;29.40;38.50;;;;;;4921504;29;20055;-91
2022/03/25 10:03:44;;;;;;;29.20;17.27;;;29.10;37.90;;;;;;4924410;29;20395;-90
2022/03/25 10:06:15;;;;;;;29.20;17.67;;;28.90;37.90;;;;;;4933984;29;20040;-91
2022/03/25 10:17:10;;;;;;;25.63;17.05;;;29.90;36.70;;;;;;4818124;29;20045;-91
2022/03/25 10:19:49;;;;;;;32.15;17.98;;;31.70;35.90;;;;;;4824679;29;20046;-90
2022/03/25 10:22:17;;;;;;;35.92;17.88;;;31.90;35.10;;;;;;4813442;29;20037;-89
2022/03/25 10:24:52;;;;;;;30.10;17.67;;;31.70;35.10;;;;;;4885232;29;20105;-88
2022/03/25 10:27:24;;;;;;;31.85;16.88;;;31.80;35.00;;;;;;4895620;29;20041;-90
2022/03/25 10:29:54;;;;;;;30.98;17.42;;;31.10;35.20;;;;;;4900046;29;20041;-87
2022/03/25 10:32:25;;;;;;;31.23;17.83;;;32.10;34.90;;;;;;4897880;29;20013;-86
2022/03/25 10:35:09;;;;;;;33.28;18.42;;;32.60;34.80;;;;;;4899614;29;20069;-89
2022/03/25 10:37:36;;;;;;;32.95;18.88;;;33.10;34.50;;;;;;4919181;29;20097;-87
2022/03/25 10:40:06;;;;;;;36.05;18.08;;;33.00;34.60;;;;;;4903823;29;20033;-86
2022/03/25 10:42:33;;;;;;;32.00;18.88;;;33.30;34.40;;;;;;4899102;29;20037;-87
2022/03/25 10:45:00;;;;;;;27.88;17.48;;;33.50;34.10;;;;;;4895166;29;20126;-88
2022/03/25 10:47:28;;;;;;;29.90;18.00;;;33.80;34.10;;;;;;4912936;29;20089;-88
2022/03/25 10:49:57;;;;;;;28.02;17.88;;;34.20;34.10;;;;;;4903541;29;20017;-84
2022/03/25 10:52:30;;;;;;;30.13;18.60;;;34.60;33.80;;;;;;4904652;29;20052;-84
2022/03/25 10:55:23;;;;;;;29.65;17.20;;;34.30;33.60;;;;;;4907183;29;20192;-87
2022/03/25 10:57:53;;;;;;;34.20;17.60;;;34.00;33.40;;;;;;4903029;29;20093;-86
2022/03/25 11:00:20;;;;;;;25.52;16.20;;;34.30;33.30;;;;;;4919929;29;20051;-86
2022/03/25 11:02:46;;;;;;;34.67;17.67;;;34.10;33.20;;;;;;4919977;29;20022;-86
2022/03/25 11:05:15;;;;;;;31.33;17.83;;;33.20;33.60;;;;;;4902864;29;20041;-86
2022/03/25 11:07:47;;;;;;;28.13;17.08;;;32.40;33.30;;;;;;4902911;29;20029;-86
2022/03/25 11:10:17;;;;;;;27.45;18.00;;;31.10;34.30;;;;;;4888520;29;20072;-85
2022/03/25 11:12:51;;;;;;;28.52;17.83;;;31.60;33.50;;;;;;4919517;29;20072;-86
2022/03/25 11:15:19;;;;;;;29.05;19.00;;;32.20;33.40;;;;;;4877380;29;20028;-87
2022/03/25 11:17:46;;;;;;;30.95;18.45;;;32.00;33.30;;;;;;4891779;29;20031;-87
2022/03/25 11:20:15;;;;;;;26.45;17.67;;;32.50;33.40;;;;;;4901290;29;20053;-88
2022/03/25 11:22:50;;;;;;;25.73;17.08;;;33.20;32.40;;;;;;4899630;29;20090;-87
2022/03/25 11:25:21;;;;;;;28.45;18.60;;;33.60;32.30;;;;;;4894824;29;20040;-86
2022/03/25 11:27:59;;;;;;;29.95;17.63;;;34.00;32.10;;;;;;4892921;29;20037;-87
2022/03/25 11:30:32;;;;;;;34.72;17.40;;;34.50;32.10;;;;;;4899167;29;20124;-87
2022/03/25 11:33:00;;;;;;;27.30;17.95;;;34.40;32.60;;;;;;4913567;29;20017;-88
2022/03/25 11:35:26;;;;;;;26.42;17.80;;;34.80;32.10;;;;;;4913678;29;20021;-87
2022/03/25 11:38:13;;;;;;;25.42;17.58;;;33.90;32.40;;;;;;4897810;29;20044;-87
2022/03/25 11:40:46;;;;;;;28.33;18.45;;;34.20;32.20;;;;;;4916073;29;20045;-88
2022/03/25 11:43:18;;;;;;;27.77;18.45;;;35.20;31.80;;;;;;4894780;29;20021;-88
2022/03/25 11:46:01;;;;;;;26.33;17.75;;;35.80;31.50;;;;;;4898452;29;20076;-88
2022/03/25 11:48:27;;;;;;;30.92;18.50;;;35.90;31.20;;;;;;4893639;29;20025;-88
2022/03/25 11:50:56;;;;;;;23.42;16.90;;;35.80;31.50;;;;;;4900695;29;20033;-87
2022/03/25 11:53:23;;;;;;;28.60;17.88;;;35.30;31.30;;;;;;4901352;29;20181;-89
2022/03/25 11:55:54;;;;;;;29.95;18.10;;;34.90;31.40;;;;;;4901989;29;20049;-89
2022/03/25 11:58:20;;;;;;;29.00;17.77;;;34.20;31.70;;;;;;4917150;29;20146;-86
2022/03/25 12:00:53;;;;;;;27.67;17.92;;;33.90;32.10;;;;;;4901646;29;20025;-88
2022/03/25 12:03:20;;;;;;;34.85;18.77;;;34.10;31.60;;;;;;4901169;29;20025;-88
2022/03/25 12:06:03;;;;;;;28.05;17.65;;;33.80;31.40;;;;;;4899923;29;20033;-87
2022/03/25 12:08:36;;;;;;;32.90;18.00;;;33.50;31.70;;;;;;4895281;29;20048;-88
2022/03/25 12:11:11;;;;;;;31.33;18.05;;;34.30;32.00;;;;;;4900872;29;20028;-87
2022/03/25 12:13:53;;;;;;;26.58;17.17;;;35.50;31.30;;;;;;4895383;29;20048;-89
2022/03/25 12:16:48;;;;;;;30.80;17.52;;;36.00;31.60;;;;;;4885643;29;20064;-89
2022/03/25 12:19:28;;;;;;;34.08;17.83;;;35.50;31.60;;;;;;4900194;29;20115;-89
2022/03/25 12:21:56;;;;;;;31.42;17.95;;;35.80;31.80;;;;;;4883196;29;20049;-90
2022/03/25 12:24:24;;;;;;;30.58;17.85;;;36.70;31.50;;;;;;4901625;29;20047;-90
2022/03/25 12:27:06;;;;;;;27.92;18.40;;;36.40;31.40;;;;;;4901071;29;20058;-88
2022/03/25 12:29:35;;;;;;;24.05;18.10;;;35.80;31.40;;;;;;4898800;29;20163;-89
2022/03/25 12:32:02;;;;;;;31.65;18.48;;;35.60;31.10;;;;;;4894365;29;20033;-90
2022/03/25 12:34:43;;;;;;;30.35;18.92;;;35.70;30.90;;;;;;4901654;29;20117;-88
2022/03/25 12:37:35;;;;;;;25.73;18.10;;;35.60;31.10;;;;;;4908200;29;20017;-89
2022/03/25 12:40:20;;;;;;;30.13;17.80;;;36.30;31.20;;;;;;4916141;29;20043;-91
2022/03/25 12:42:52;;;;;;;30.50;17.80;;;36.90;30.30;;;;;;4891653;29;20089;-89
2022/03/25 12:45:28;;;;;;;27.13;17.08;;;36.90;30.20;;;;;;4901238;29;20029;-88
2022/03/25 12:47:57;;;;;;;29.75;18.08;;;36.10;30.50;;;;;;4920861;23;20075;-85
2022/03/25 12:50:23;;;;;;;25.88;17.92;;;35.90;30.90;;;;;;4913620;29;20048;-85
2022/03/25 12:52:58;;;;;;;25.35;16.90;;;36.00;30.50;;;;;;4911948;29;20048;-86
2022/03/25 12:55:24;;;;;;;28.38;17.30;;;36.80;30.20;;;;;;4912577;29;20043;-86
2022/03/25 12:57:51;;;;;;;31.85;18.27;;;36.80;30.00;;;;;;4909678;29;20481;-86
2022/03/25 13:00:17;;;;;;;26.75;17.35;;;37.00;30.00;;;;;;4908952;29;20120;-86
2022/03/25 13:02:45;;;;;;;29.90;18.17;;;36.30;30.20;;;;;;4910131;29;20024;-89
2022/03/25 13:05:15;;;;;;;24.83;18.33;;;36.20;30.10;;;;;;4893293;29;20036;-89
2022/03/25 13:07:50;;;;;;;24.95;17.33;;;36.40;30.00;;;;;;4909041;29;20068;-87
2022/03/25 13:10:16;;;;;;;26.85;18.23;;;36.50;30.00;;;;;;4913265;29;20075;-87
2022/03/25 13:12:44;;;;;;;27.75;18.85;;;36.50;30.00;;;;;;4914831;29;20092;-88
2022/03/25 13:15:12;;;;;;;25.38;17.60;;;36.40;30.00;;;;;;4913726;29;20051;-86
2022/03/25 13:17:43;;;;;;;30.38;19.50;;;36.20;29.90;;;;;;4911412;29;20176;-87
2022/03/25 13:20:22;;;;;;;32.10;18.67;;;36.10;30.00;;;;;;4909529;29;20045;-86
2022/03/25 13:22:59;;;;;;;28.70;18.98;;;35.40;30.00;;;;;;4916106;29;20095;-85
2022/03/25 13:25:30;;;;;;;37.38;19.67;;;35.10;30.40;;;;;;4923746;29;20036;-86
2022/03/25 13:27:58;;;;;;;26.38;18.52;;;35.40;30.10;;;;;;4923160;29;20024;-86
2022/03/25 13:30:27;;;;;;;25.33;16.55;;;35.80;29.90;;;;;;4923259;29;20044;-85
2022/03/25 13:33:01;;;;;;;24.98;17.67;;;35.60;29.90;;;;;;4920563;29;20067;-86